createdAt,value
2023-04-03T00:01:10.295Z,3.80
2023-04-03T00:03:37.682Z,3.60
2023-04-03T00:06:07.775Z,3.50
2023-04-03T00:08:34.800Z,3.40
2023-04-03T00:11:02.234Z,3.40
2023-04-03T00:13:29.188Z,3.40
2023-04-03T00:15:56.581Z,3.40
2023-04-03T00:18:23.555Z,3.40
2023-04-03T00:20:50.652Z,3.40
2023-04-03T00:23:17.673Z,3.40
2023-04-03T00:25:44.707Z,3.30
2023-04-03T00:28:12.022Z,3.40
2023-04-03T00:30:39.234Z,3.30
2023-04-03T00:33:06.360Z,3.20
2023-04-03T00:35:35.090Z,3.20
2023-04-03T00:38:02.071Z,3.10
2023-04-03T00:40:29.136Z,3.10
2023-04-03T00:42:59.199Z,3.10
2023-04-03T00:45:47.175Z,3.10
2023-04-03T00:48:22.071Z,3.00
2023-04-03T00:50:49.224Z,3.10
2023-04-03T00:53:47.906Z,3.10
2023-04-03T00:56:18.772Z,3.10
2023-04-03T00:58:51.080Z,3.10
2023-04-03T01:01:22.839Z,3.10
2023-04-03T01:03:49.915Z,3.00
2023-04-03T01:06:20.672Z,3.00
2023-04-03T01:08:50.638Z,3.00
2023-04-03T01:11:17.641Z,3.10
2023-04-03T01:13:45.495Z,3.10
2023-04-03T01:16:12.394Z,3.00
2023-04-03T01:18:41.354Z,3.00
2023-04-03T01:21:20.088Z,3.00
2023-04-03T01:23:58.292Z,3.00
2023-04-03T01:26:26.751Z,3.00
2023-04-03T01:28:56.217Z,3.00
2023-04-03T01:31:36.312Z,3.00
2023-04-03T01:34:04.032Z,2.90
2023-04-03T01:36:33.396Z,3.00
2023-04-03T01:39:01.324Z,3.10
2023-04-03T01:41:29.101Z,3.00
2023-04-03T01:44:02.954Z,3.00
2023-04-03T01:46:29.807Z,2.90
2023-04-03T01:48:56.637Z,2.90
2023-04-03T01:51:23.711Z,2.90
2023-04-03T01:53:50.740Z,3.10
2023-04-03T01:56:17.683Z,3.00
2023-04-03T01:58:45.667Z,2.90
2023-04-03T02:01:12.680Z,2.90
2023-04-03T02:03:39.666Z,3.10
2023-04-03T02:06:06.921Z,3.20
2023-04-03T02:08:33.937Z,3.20
2023-04-03T02:11:00.740Z,3.10
2023-04-03T02:13:27.696Z,3.10
2023-04-03T02:15:54.543Z,3.00
2023-04-03T02:18:21.699Z,3.00
2023-04-03T02:20:48.844Z,3.00
2023-04-03T02:23:15.783Z,2.90
2023-04-03T02:25:42.635Z,2.90
2023-04-03T02:28:09.590Z,3.10
2023-04-03T02:30:36.833Z,3.00
2023-04-03T02:33:05.019Z,3.00
2023-04-03T02:35:32.124Z,3.10
2023-04-03T02:37:59.716Z,3.10
2023-04-03T02:40:26.750Z,3.00
2023-04-03T02:42:53.591Z,2.90
2023-04-03T02:45:21.215Z,3.00
2023-04-03T02:47:48.205Z,3.00
2023-04-03T02:50:15.545Z,2.90
2023-04-03T02:52:42.434Z,2.90
2023-04-03T02:55:09.724Z,2.90
2023-04-03T02:57:36.735Z,2.90
2023-04-03T03:00:04.368Z,2.80
2023-04-03T03:02:31.363Z,2.90
2023-04-03T03:04:58.345Z,3.00
2023-04-03T03:07:25.594Z,2.80
2023-04-03T03:09:52.451Z,2.70
2023-04-03T03:12:22.668Z,2.60
2023-04-03T03:14:50.707Z,2.70
2023-04-03T03:17:18.354Z,2.70
2023-04-03T03:19:46.726Z,2.70
2023-04-03T03:22:13.590Z,2.80
2023-04-03T03:24:40.707Z,2.60
2023-04-03T03:27:07.678Z,2.70
2023-04-03T03:29:34.605Z,2.70
2023-04-03T03:32:02.679Z,2.80
2023-04-03T03:34:29.550Z,2.80
2023-04-03T03:36:56.685Z,2.70
2023-04-03T03:39:23.567Z,2.70
2023-04-03T03:41:50.814Z,2.80
2023-04-03T03:44:17.959Z,2.80
2023-04-03T03:46:45.002Z,2.90
2023-04-03T03:49:12.547Z,3.00
2023-04-03T03:51:41.184Z,2.90
2023-04-03T03:54:08.699Z,2.80
2023-04-03T03:56:36.452Z,2.70
2023-04-03T03:59:03.779Z,2.80
2023-04-03T04:01:32.170Z,2.60
2023-04-03T04:03:59.135Z,2.60
2023-04-03T04:06:30.349Z,2.80
2023-04-03T04:09:00.755Z,2.60
2023-04-03T04:11:28.749Z,2.60
2023-04-03T04:13:56.178Z,2.50
2023-04-03T04:16:26.437Z,2.50
2023-04-03T04:18:54.380Z,2.50
2023-04-03T04:21:21.829Z,2.40
2023-04-03T04:23:50.940Z,2.40
2023-04-03T04:26:17.772Z,2.30
2023-04-03T04:28:44.702Z,2.30
2023-04-03T04:31:11.904Z,2.40
2023-04-03T04:33:38.813Z,2.70
2023-04-03T04:36:07.976Z,2.50
2023-04-03T04:38:36.487Z,2.40
2023-04-03T04:41:03.349Z,2.30
2023-04-03T04:43:31.087Z,2.30
2023-04-03T04:46:07.092Z,2.30
2023-04-03T04:48:38.626Z,2.40
2023-04-03T04:51:06.602Z,2.30
2023-04-03T04:53:34.294Z,2.20
2023-04-03T04:56:01.388Z,2.10
2023-04-03T04:58:28.442Z,2.10
2023-04-03T05:01:06.530Z,2.00
2023-04-03T05:03:36.551Z,2.00
2023-04-03T05:06:03.977Z,2.10
2023-04-03T05:08:32.626Z,2.10
2023-04-03T05:11:01.053Z,2.00
2023-04-03T05:13:29.100Z,2.00
2023-04-03T05:15:57.008Z,2.00
2023-04-03T05:18:24.336Z,2.10
2023-04-03T05:20:53.036Z,2.10
2023-04-03T05:23:20.818Z,1.90
2023-04-03T05:25:49.750Z,2.00
2023-04-03T05:28:17.357Z,1.90
2023-04-03T05:30:44.722Z,2.10
2023-04-03T05:33:12.352Z,2.00
2023-04-03T05:35:45.969Z,1.90
2023-04-03T05:38:18.150Z,1.90
2023-04-03T05:40:45.231Z,1.90
2023-04-03T05:43:12.407Z,2.10
2023-04-03T05:45:42.620Z,2.10
2023-04-03T05:48:10.828Z,2.10
2023-04-03T05:50:42.434Z,2.00
2023-04-03T05:53:22.081Z,2.10
2023-04-03T05:55:50.316Z,2.00
2023-04-03T05:58:17.453Z,2.20
2023-04-03T06:00:46.397Z,2.00
2023-04-03T06:03:13.394Z,2.10
2023-04-03T06:05:40.851Z,2.10
2023-04-03T06:08:08.044Z,2.10
2023-04-03T06:10:34.891Z,2.00
2023-04-03T06:13:01.732Z,2.00
2023-04-03T06:15:29.366Z,2.10
2023-04-03T06:17:56.427Z,2.20
2023-04-03T06:20:23.626Z,2.20
2023-04-03T06:22:51.618Z,2.30
2023-04-03T06:25:20.008Z,2.20
2023-04-03T06:27:46.876Z,2.30
2023-04-03T06:30:14.195Z,2.20
2023-04-03T06:32:41.488Z,2.30
2023-04-03T06:35:09.585Z,2.20
2023-04-03T06:37:36.562Z,2.20
2023-04-03T06:40:04.091Z,2.10
2023-04-03T06:42:31.208Z,2.00
2023-04-03T06:45:07.041Z,2.10
2023-04-03T06:47:33.981Z,2.10
2023-04-03T06:50:01.146Z,2.10
2023-04-03T06:52:28.425Z,2.10
2023-04-03T06:54:58.142Z,2.10
2023-04-03T06:57:25.642Z,2.10
2023-04-03T06:59:52.724Z,2.20
2023-04-03T07:02:19.812Z,2.20
2023-04-03T07:04:46.783Z,2.20
2023-04-03T07:07:13.771Z,2.20
2023-04-03T07:09:40.744Z,2.20
2023-04-03T07:12:08.268Z,2.30
2023-04-03T07:14:35.509Z,2.20
2023-04-03T07:17:02.448Z,2.30
2023-04-03T07:19:29.315Z,2.50
2023-04-03T07:21:56.227Z,2.40
2023-04-03T07:24:23.078Z,2.20
2023-04-03T07:26:56.556Z,2.20
2023-04-03T07:29:24.881Z,2.30
2023-04-03T07:31:51.753Z,2.20
2023-04-03T07:34:18.662Z,2.40
2023-04-03T07:36:45.497Z,2.40
2023-04-03T07:39:12.527Z,2.40
2023-04-03T07:41:39.410Z,2.50
2023-04-03T07:44:06.585Z,2.40
2023-04-03T07:46:33.473Z,2.40
2023-04-03T07:49:00.284Z,2.50
2023-04-03T07:51:27.982Z,2.30
2023-04-03T07:53:55.090Z,2.40
2023-04-03T07:56:22.000Z,2.30
2023-04-03T07:58:48.826Z,2.30
2023-04-03T08:01:15.739Z,2.30
2023-04-03T08:03:42.757Z,2.40
2023-04-03T08:06:15.741Z,2.50
2023-04-03T08:08:46.694Z,2.50
2023-04-03T08:11:13.664Z,2.30
2023-04-03T08:13:42.403Z,2.40
2023-04-03T08:16:16.912Z,2.70
2023-04-03T08:18:43.935Z,2.70
2023-04-03T08:21:12.330Z,2.70
2023-04-03T08:23:40.327Z,2.60
2023-04-03T08:26:12.653Z,2.70
2023-04-03T08:28:40.690Z,2.80
2023-04-03T08:31:11.999Z,2.90
2023-04-03T08:33:39.724Z,2.70
2023-04-03T08:36:08.466Z,2.50
2023-04-03T08:38:38.257Z,2.60
2023-04-03T08:41:17.132Z,2.50
2023-04-03T08:44:06.073Z,2.50
2023-04-03T08:46:59.336Z,2.60
2023-04-03T08:49:32.721Z,2.60
2023-04-03T08:52:04.210Z,2.50
2023-04-03T08:55:07.113Z,2.70
2023-04-03T08:57:42.988Z,2.60
2023-04-03T09:00:21.311Z,2.60
2023-04-03T09:02:54.237Z,2.50
2023-04-03T09:05:26.869Z,2.80
2023-04-03T09:08:03.164Z,2.90
2023-04-03T09:10:33.334Z,2.80
2023-04-03T09:13:14.528Z,2.60
2023-04-03T09:15:41.971Z,3.00
2023-04-03T09:18:16.826Z,2.90
2023-04-03T09:21:05.462Z,2.90
2023-04-03T09:23:53.419Z,3.00
2023-04-03T09:26:39.846Z,2.90
2023-04-03T09:29:08.995Z,2.90
2023-04-03T09:31:42.517Z,2.90
2023-04-03T09:34:39.122Z,3.00
2023-04-03T09:37:09.784Z,3.00
2023-04-03T09:39:57.391Z,3.00
2023-04-03T09:42:26.441Z,3.00
2023-04-03T09:45:06.471Z,3.00
2023-04-03T09:47:37.840Z,3.10
2023-04-03T09:50:16.733Z,3.00
2023-04-03T09:52:46.020Z,3.00
2023-04-03T09:55:30.926Z,3.00
2023-04-03T09:58:04.158Z,3.00
2023-04-03T10:00:33.724Z,3.20
2023-04-03T10:03:01.401Z,3.10
2023-04-03T10:05:40.094Z,3.20
2023-04-03T10:08:12.293Z,3.20
2023-04-03T10:10:39.846Z,3.20
2023-04-03T10:13:09.373Z,3.30
2023-04-03T10:15:49.811Z,3.30
2023-04-03T10:18:47.859Z,3.20
2023-04-03T10:21:29.320Z,3.20
2023-04-03T10:24:05.085Z,3.30
2023-04-03T10:26:40.980Z,3.40
2023-04-03T10:29:42.548Z,3.40
2023-04-03T10:32:31.336Z,3.30
2023-04-03T10:35:19.257Z,3.20
2023-04-03T10:37:56.155Z,3.30
2023-04-03T10:40:39.338Z,3.30
2023-04-03T10:43:37.320Z,3.30
2023-04-03T10:46:19.862Z,3.30
2023-04-03T10:49:11.772Z,3.30
2023-04-03T10:52:01.986Z,3.20
2023-04-03T10:54:54.033Z,3.30
2023-04-03T10:57:22.779Z,3.30
2023-04-03T11:00:04.201Z,3.40
2023-04-03T11:02:56.405Z,3.30
2023-04-03T11:05:35.406Z,3.30
2023-04-03T11:08:31.355Z,3.50
2023-04-03T11:11:03.006Z,3.50
2023-04-03T11:13:44.891Z,3.70
2023-04-03T11:16:18.958Z,3.60
2023-04-03T11:19:13.395Z,3.60
2023-04-03T11:21:49.924Z,3.60
2023-04-03T11:24:23.258Z,3.50
2023-04-03T11:26:51.033Z,3.60
2023-04-03T11:29:35.174Z,3.50
2023-04-03T11:32:27.512Z,3.60
2023-04-03T11:35:00.166Z,3.90
2023-04-03T11:37:41.031Z,4.00
2023-04-03T11:40:31.079Z,4.00
2023-04-03T11:43:01.162Z,4.00
2023-04-03T11:46:00.594Z,4.00
2023-04-03T11:48:34.164Z,3.90
2023-04-03T11:51:11.485Z,3.90
2023-04-03T11:53:40.667Z,4.10
2023-04-03T11:56:26.821Z,4.20
2023-04-03T11:59:12.696Z,4.30
2023-04-03T12:01:51.698Z,4.30
2023-04-03T12:04:21.843Z,4.40
2023-04-03T12:06:49.862Z,4.40
2023-04-03T12:09:22.826Z,4.40
2023-04-03T12:11:50.755Z,4.50
2023-04-03T12:14:18.107Z,4.30
2023-04-03T12:16:48.791Z,4.50
2023-04-03T12:19:15.685Z,4.30
2023-04-03T12:21:57.822Z,4.40
2023-04-03T12:24:30.616Z,4.20
2023-04-03T12:27:35.287Z,4.20
2023-04-03T12:30:15.653Z,4.10
2023-04-03T12:33:12.603Z,4.20
2023-04-03T12:35:50.366Z,4.10
2023-04-03T12:38:36.149Z,4.10
2023-04-03T12:41:28.791Z,4.20
2023-04-03T12:44:06.481Z,4.30
2023-04-03T12:46:46.943Z,4.30
2023-04-03T12:49:32.387Z,4.20
2023-04-03T12:51:59.786Z,4.30
2023-04-03T12:54:44.759Z,4.10
2023-04-03T12:57:16.267Z,4.00
2023-04-03T12:59:46.436Z,4.00
2023-04-03T13:02:25.764Z,4.20
2023-04-03T13:04:55.503Z,4.10
2023-04-03T13:07:34.323Z,4.10
2023-04-03T13:10:07.880Z,4.10
2023-04-03T13:12:37.271Z,4.20
2023-04-03T13:15:15.569Z,4.20
2023-04-03T13:17:44.317Z,4.20
2023-04-03T13:20:14.503Z,4.20
2023-04-03T13:22:50.877Z,4.20
2023-04-03T13:25:19.926Z,4.00
2023-04-03T13:27:46.915Z,3.90
2023-04-03T13:30:33.589Z,4.00
2023-04-03T13:33:03.879Z,4.10
2023-04-03T13:35:40.973Z,4.30
2023-04-03T13:38:19.832Z,4.20
2023-04-03T13:41:01.523Z,4.20
2023-04-03T13:43:30.887Z,4.20
2023-04-03T13:46:11.143Z,4.20
2023-04-03T13:48:44.879Z,4.20
2023-04-03T13:51:11.692Z,4.20
2023-04-03T13:54:02.179Z,4.40
2023-04-03T13:56:36.928Z,4.70
2023-04-03T13:59:12.935Z,4.70
2023-04-03T14:01:43.548Z,4.80
2023-04-03T14:04:16.752Z,4.80
2023-04-03T14:06:43.748Z,4.70
2023-04-03T14:09:10.997Z,4.80
2023-04-03T14:11:38.180Z,4.70
2023-04-03T14:14:15.672Z,4.60
2023-04-03T14:16:45.264Z,4.50
2023-04-03T14:19:24.490Z,4.60
2023-04-03T14:21:53.491Z,4.70
2023-04-03T14:24:21.390Z,4.80
2023-04-03T14:26:50.006Z,4.90
2023-04-03T14:29:17.589Z,5.10
2023-04-03T14:31:46.831Z,5.10
2023-04-03T14:34:15.827Z,5.20
2023-04-03T14:36:45.031Z,5.10
2023-04-03T14:39:18.237Z,5.20
2023-04-03T14:41:46.138Z,5.00
2023-04-03T14:44:13.025Z,5.10
2023-04-03T14:49:19.826Z,4.90
2023-04-03T14:51:46.793Z,4.80
2023-04-03T14:54:16.528Z,4.60
2023-04-03T14:56:43.503Z,4.60
2023-04-03T14:59:13.774Z,4.80
2023-04-03T15:01:40.946Z,5.00
2023-04-03T15:04:21.875Z,5.10
2023-04-03T15:06:49.457Z,5.10
2023-04-03T15:09:23.680Z,5.20
2023-04-03T15:11:52.166Z,5.10
2023-04-03T15:14:29.765Z,5.00
2023-04-03T15:17:06.161Z,4.90
2023-04-03T15:19:40.526Z,5.00
2023-04-03T15:22:08.292Z,5.20
2023-04-03T15:24:35.729Z,5.20
2023-04-03T15:27:04.210Z,5.30
2023-04-03T15:29:31.420Z,5.30
2023-04-03T15:31:58.518Z,5.30
2023-04-03T15:34:25.544Z,5.30
2023-04-03T15:36:53.803Z,5.20
2023-04-03T15:39:22.053Z,5.10
2023-04-03T15:41:49.017Z,5.00
2023-04-03T15:44:18.686Z,5.10
2023-04-03T15:46:47.077Z,5.00
2023-04-03T15:49:14.253Z,4.80
2023-04-03T15:51:41.172Z,4.70
2023-04-03T15:54:08.483Z,4.80
2023-04-03T15:56:35.387Z,4.70
2023-04-03T15:59:02.306Z,4.70
2023-04-03T16:01:29.297Z,4.60
2023-04-03T16:03:56.858Z,4.60
2023-04-03T16:06:26.273Z,4.50
2023-04-03T16:08:57.924Z,4.50
2023-04-03T16:11:28.159Z,4.70
2023-04-03T16:13:55.846Z,4.50
2023-04-03T16:16:24.391Z,4.60
2023-04-03T16:18:51.612Z,4.70
2023-04-03T16:21:18.814Z,4.70
2023-04-03T16:23:46.365Z,4.70
2023-04-03T16:26:13.286Z,4.60
2023-04-03T16:28:40.224Z,4.50
2023-04-03T16:31:08.825Z,4.40
2023-04-03T16:33:36.472Z,4.30
2023-04-03T16:36:05.073Z,4.30
2023-04-03T16:38:31.928Z,4.40
2023-04-03T16:41:00.577Z,4.40
2023-04-03T16:43:28.070Z,4.40
2023-04-03T16:45:54.963Z,4.40
2023-04-03T16:48:22.032Z,4.30
2023-04-03T16:50:53.281Z,4.20
2023-04-03T16:53:24.627Z,4.20
2023-04-03T16:55:51.934Z,4.20
2023-04-03T16:58:18.787Z,4.10
2023-04-03T17:00:45.856Z,4.10
2023-04-03T17:03:12.709Z,4.20
2023-04-03T17:05:39.790Z,4.10
2023-04-03T17:08:06.922Z,4.20
2023-04-03T17:10:36.374Z,4.30
2023-04-03T17:13:03.231Z,4.20
2023-04-03T17:15:30.106Z,4.10
2023-04-03T17:17:56.996Z,4.10
2023-04-03T17:20:23.890Z,4.10
2023-04-03T17:22:50.880Z,4.10
2023-04-03T17:25:17.945Z,4.10
2023-04-03T17:27:44.770Z,4.20
2023-04-03T17:30:13.040Z,4.20
2023-04-03T17:32:39.989Z,4.10
2023-04-03T17:35:09.522Z,4.10
2023-04-03T17:37:37.299Z,4.00
2023-04-03T17:40:04.438Z,4.00
2023-04-03T17:42:32.665Z,4.00
2023-04-03T17:45:01.072Z,4.00
2023-04-03T17:47:28.032Z,4.00
2023-04-03T17:49:54.915Z,4.10
2023-04-03T17:52:25.371Z,4.10
2023-04-03T17:54:52.278Z,4.00
2023-04-03T17:57:19.237Z,4.00
2023-04-03T17:59:46.965Z,3.90
2023-04-03T18:02:13.844Z,3.90
2023-04-03T18:04:40.809Z,3.90
2023-04-03T18:07:10.074Z,3.80
2023-04-03T18:09:38.085Z,3.80
2023-04-03T18:12:07.449Z,3.80
2023-04-03T18:14:37.270Z,3.70
2023-04-03T18:17:04.203Z,3.70
2023-04-03T18:19:31.061Z,3.70
2023-04-03T18:22:04.865Z,3.70
2023-04-03T18:24:34.278Z,3.70
2023-04-03T18:27:06.806Z,3.60
2023-04-03T18:29:37.758Z,3.60
2023-04-03T18:32:07.190Z,3.50
2023-04-03T18:34:34.158Z,3.60
2023-04-03T18:37:01.616Z,3.70
2023-04-03T18:39:28.537Z,3.80
2023-04-03T18:41:57.261Z,3.80
2023-04-03T18:44:26.312Z,3.60
2023-04-03T18:46:54.005Z,3.60
2023-04-03T18:49:21.467Z,3.60
2023-04-03T18:51:48.519Z,3.60
2023-04-03T18:54:16.332Z,3.40
2023-04-03T18:56:43.297Z,3.40
2023-04-03T18:59:10.277Z,3.30
2023-04-03T19:01:37.519Z,3.30
2023-04-03T19:04:04.546Z,3.30
2023-04-03T19:06:33.752Z,3.30
2023-04-03T19:09:01.242Z,3.30
2023-04-03T19:11:30.156Z,3.20
2023-04-03T19:14:14.526Z,3.30
2023-04-03T19:16:44.642Z,3.20
2023-04-03T19:19:12.034Z,3.20
2023-04-03T19:21:42.146Z,3.20
2023-04-03T19:24:13.596Z,3.10
2023-04-03T19:26:42.350Z,2.90
2023-04-03T19:29:09.781Z,2.80
2023-04-03T19:31:37.871Z,2.90
2023-04-03T19:34:05.933Z,2.80
2023-04-03T19:36:33.623Z,2.90
2023-04-03T19:39:00.490Z,2.90
2023-04-03T19:41:29.978Z,2.90
2023-04-03T19:43:57.725Z,2.80
2023-04-03T19:46:29.544Z,2.90
2023-04-03T19:48:57.279Z,2.80
2023-04-03T19:51:24.139Z,2.90
2023-04-03T19:53:51.428Z,2.80
2023-04-03T19:56:18.455Z,2.90
2023-04-03T19:58:45.698Z,2.90
2023-04-03T20:01:12.744Z,3.00
2023-04-03T20:03:39.723Z,2.90
2023-04-03T20:06:06.630Z,2.70
2023-04-03T20:08:33.767Z,2.50
2023-04-03T20:11:00.710Z,2.40
2023-04-03T20:13:27.554Z,2.50
2023-04-03T20:15:54.485Z,2.50
2023-04-03T20:18:21.538Z,2.60
2023-04-03T20:20:59.655Z,2.50
2023-04-03T20:23:27.534Z,2.60
2023-04-03T20:26:06.601Z,2.50
2023-04-03T20:28:38.185Z,2.40
2023-04-03T20:31:07.698Z,2.30
2023-04-03T20:33:35.401Z,2.20
2023-04-03T20:36:02.561Z,2.30
2023-04-03T20:38:29.689Z,2.30
2023-04-03T20:40:56.596Z,2.30
2023-04-03T20:43:23.771Z,2.40
2023-04-03T20:45:51.262Z,2.30
2023-04-03T20:48:18.734Z,2.30
2023-04-03T20:50:46.645Z,2.40
2023-04-03T20:53:17.952Z,2.30
2023-04-03T20:56:00.070Z,2.40
2023-04-03T20:58:30.655Z,2.40
2023-04-03T21:00:57.952Z,2.30
2023-04-03T21:03:26.644Z,2.30
2023-04-03T21:06:03.918Z,2.30
2023-04-03T21:09:09.005Z,2.20
2023-04-03T21:12:13.486Z,2.30
2023-04-03T21:15:18.062Z,2.30
2023-04-03T21:18:15.578Z,2.20
2023-04-03T21:20:43.751Z,2.20
2023-04-03T21:23:11.876Z,2.20
2023-04-03T21:25:38.750Z,2.10
2023-04-03T21:28:05.709Z,2.00
2023-04-03T21:30:32.591Z,2.00
2023-04-03T21:32:59.450Z,2.00
2023-04-03T21:35:26.237Z,1.90
2023-04-03T21:37:53.067Z,1.80
2023-04-03T21:40:19.903Z,1.70
2023-04-03T21:42:46.817Z,1.70
2023-04-03T21:45:16.137Z,1.80
2023-04-03T21:47:44.017Z,1.80
2023-04-03T21:50:11.436Z,1.80
2023-04-03T21:52:38.302Z,1.90
2023-04-03T21:55:05.530Z,1.80
2023-04-03T21:57:32.375Z,1.80
2023-04-03T21:59:59.396Z,2.00
2023-04-03T22:02:31.467Z,2.20
2023-04-03T22:04:58.430Z,2.30
2023-04-03T22:07:25.468Z,2.20
2023-04-03T22:09:52.276Z,2.10
2023-04-03T22:12:19.218Z,2.00
2023-04-03T22:14:46.053Z,1.90
2023-04-03T22:17:13.494Z,1.70
2023-04-03T22:19:40.320Z,1.60
2023-04-03T22:22:07.469Z,1.50
2023-04-03T22:24:34.289Z,1.50
2023-04-03T22:27:01.866Z,1.30
2023-04-03T22:29:28.714Z,1.20
2023-04-03T22:31:55.784Z,1.20
2023-04-03T22:34:24.529Z,1.20
2023-04-03T22:36:51.322Z,1.10
2023-04-03T22:39:19.319Z,1.00
2023-04-03T22:41:46.247Z,0.90
2023-04-03T22:44:13.176Z,1.00
2023-04-03T22:46:40.022Z,1.00
2023-04-03T22:49:07.485Z,0.90
2023-04-03T22:51:34.291Z,0.90
2023-04-03T22:54:01.429Z,0.90
2023-04-03T22:56:28.317Z,0.90
2023-04-03T22:58:56.709Z,0.80
2023-04-03T23:01:25.160Z,0.80
2023-04-03T23:03:52.040Z,0.80
2023-04-03T23:06:18.890Z,0.80
2023-04-03T23:08:45.726Z,0.90
2023-04-03T23:11:12.649Z,0.80
2023-04-03T23:13:39.603Z,0.90
2023-04-03T23:16:06.828Z,0.70
2023-04-03T23:18:33.851Z,0.60
2023-04-03T23:21:03.766Z,0.60
2023-04-03T23:23:31.227Z,0.60
2023-04-03T23:26:00.392Z,0.60
2023-04-03T23:28:28.237Z,0.50
2023-04-03T23:31:02.796Z,0.60
2023-04-03T23:33:31.193Z,0.70
2023-04-03T23:35:59.196Z,0.60
2023-04-03T23:38:26.323Z,0.60
2023-04-03T23:40:53.208Z,0.70
2023-04-03T23:43:20.067Z,0.70
2023-04-03T23:45:47.328Z,0.60
2023-04-03T23:48:14.272Z,0.60
2023-04-03T23:50:42.144Z,0.50
2023-04-03T23:53:09.133Z,0.50
2023-04-03T23:55:35.976Z,0.40
2023-04-03T23:58:02.876Z,0.30
